This is the latest recevied weather packets stored in our database for station/object KQ4TV-2. If no packets are shown the sender has not sent any weather packets the latest 10 day(s).
| Time | Temp. | Humidity | Pressure | Rain* | Wind** | Luminosity | Snow |
|---|---|---|---|---|---|---|---|
| 1778002188 | 21.67° C | 62% | - | 0 mm | - | - | - |
| 1778001059 | 21.11° C | 62% | - | 0 mm | - | - | - |
| 1777994727 | 21.11° C | 64% | - | 0 mm | - | - | - |
| 1777994682 | 21.11° C | 64% | - | 0 mm | - | - | - |
| 1777987314 | 17.22° C | 75% | - | 0 mm | - | - | - |
| 1777920564 | 26.67° C | 45% | - | 0 mm | - | - | - |
| 1777913795 | 25° C | 51% | - | 0 mm | - | - | - |
| 1777910975 | 23.33° C | 55% | - | 0 mm | - | - | - |
| 1777906477 | 20.56° C | 62% | - | 0 mm | - | - | - |
| 1777898569 | 14.44° C | 76% | - | 0 mm | - | - | - |
| 1777895701 | 11.67° C | 80% | - | 0 mm | - | - | - |
| 1777894855 | 11.67° C | 80% | - | 0 mm | - | - | - |
| 1777884888 | 11.11° C | 77% | - | 0 mm | - | - | - |
| 1777884404 | 11.11° C | 77% | - | 0 mm | - | - | - |
| 1777881504 | 11.67° C | 76% | - | 0 mm | - | - | - |
| 1777817386 | 12.22° C | 80% | - | 0 mm | - | - | - |
| 1777817292 | 12.22° C | 80% | - | 0 mm | - | - | - |
| 1777805691 | 4.44° C | 98% | - | 0 mm | - | - | - |
| 1777804482 | 4.44° C | 97% | - | 0 mm | - | - | - |
| 1777798077 | 5.56° C | 97% | - | 0 mm | - | - | - |
| 1777797956 | 5.56° C | 97% | - | 0 mm | - | - | - |
| 1777795418 | 6.11° C | 97% | - | 0 mm | - | - | - |
| 1777791188 | 6.11° C | 97% | - | 0 mm | - | - | - |
| 1777787321 | 6.67° C | 96% | - | 0 mm | - | - | - |
| 1777785508 | 6.67° C | 96% | - | 0 mm | - | - | - |
* Rain since midnight (hover to see other rain measurements)
** Current wind speed in m/s (hover to see current wind gust speed)